createdAt,value
2019-05-17T00:01:07.391Z,9.34
2019-05-17T00:06:11.778Z,9.27
2019-05-17T00:11:16.847Z,9.24
2019-05-17T00:16:21.259Z,9.14
2019-05-17T00:21:27.547Z,9.10
2019-05-17T00:26:31.522Z,9.20
2019-05-17T00:31:36.995Z,9.25
2019-05-17T00:36:41.371Z,9.32
2019-05-17T00:41:47.130Z,9.35
2019-05-17T00:46:51.439Z,9.31
2019-05-17T00:51:56.729Z,9.27
2019-05-17T00:57:01.097Z,9.27
2019-05-17T01:02:06.958Z,9.21
2019-05-17T01:07:11.486Z,9.14
2019-05-17T01:12:16.435Z,9.09
2019-05-17T01:17:20.766Z,8.95
2019-05-17T01:22:26.257Z,8.87
2019-05-17T01:27:30.531Z,8.86
2019-05-17T01:32:37.194Z,8.91
2019-05-17T01:37:40.720Z,8.70
2019-05-17T01:42:46.595Z,8.58
2019-05-17T01:47:51.085Z,8.41
2019-05-17T01:52:56.646Z,8.55
2019-05-17T01:58:00.981Z,8.66
2019-05-17T02:03:07.038Z,8.35
2019-05-17T02:08:11.314Z,8.43
2019-05-17T02:13:16.435Z,8.52
2019-05-17T02:18:20.864Z,8.57
2019-05-17T02:23:27.091Z,8.61
2019-05-17T02:28:32.169Z,8.61
2019-05-17T02:33:36.671Z,8.61
2019-05-17T02:38:43.598Z,8.59
2019-05-17T02:43:46.899Z,8.64
2019-05-17T02:48:53.863Z,8.59
2019-05-17T02:53:57.142Z,8.55
2019-05-17T02:59:03.632Z,8.48
2019-05-17T03:04:07.550Z,8.42
2019-05-17T03:09:12.547Z,8.43
2019-05-17T03:14:16.900Z,8.41
2019-05-17T03:19:23.570Z,8.40
2019-05-17T03:24:27.091Z,8.40
2019-05-17T03:29:33.522Z,8.43
2019-05-17T03:34:37.899Z,8.36
2019-05-17T03:39:42.751Z,8.41
2019-05-17T03:44:47.084Z,8.44
2019-05-17T03:49:53.091Z,8.45
2019-05-17T03:54:57.557Z,8.47
2019-05-17T04:00:03.790Z,8.29
2019-05-17T04:05:08.052Z,8.44
2019-05-17T04:10:15.167Z,8.51
2019-05-17T04:15:18.659Z,8.49
2019-05-17T04:20:22.886Z,8.48
2019-05-17T04:25:27.118Z,8.63
2019-05-17T04:30:32.620Z,8.48
2019-05-17T04:35:37.363Z,8.42
2019-05-17T04:40:43.129Z,8.66
2019-05-17T04:45:47.628Z,8.76
2019-05-17T04:50:53.685Z,8.78
2019-05-17T04:55:57.824Z,8.81
2019-05-17T05:01:04.152Z,8.88
2019-05-17T05:06:08.040Z,8.90
2019-05-17T05:11:12.843Z,8.82
2019-05-17T05:16:17.316Z,8.80
2019-05-17T05:21:23.063Z,8.93
2019-05-17T05:26:27.636Z,9.10
2019-05-17T05:31:32.267Z,9.37
2019-05-17T05:36:36.590Z,9.62
2019-05-17T05:41:42.703Z,9.84
2019-05-17T05:46:46.853Z,10.15
2019-05-17T05:51:52.308Z,10.47
2019-05-17T05:56:56.786Z,10.70
2019-05-17T06:02:01.788Z,10.90
2019-05-17T06:07:06.141Z,11.12
2019-05-17T06:12:23.434Z,11.29
2019-05-17T06:17:16.354Z,11.53
2019-05-17T06:22:22.406Z,11.67
2019-05-17T06:27:26.791Z,11.68
2019-05-17T06:32:31.660Z,11.74
2019-05-17T06:37:36.041Z,11.92
2019-05-17T06:42:44.110Z,12.15
2019-05-17T06:47:46.266Z,12.31
2019-05-17T06:52:53.114Z,12.62
2019-05-17T06:57:56.476Z,12.88
2019-05-17T07:03:00.886Z,13.05
2019-05-17T07:08:05.312Z,13.32
2019-05-17T07:13:10.655Z,13.41
2019-05-17T07:18:15.189Z,13.63
2019-05-17T07:23:19.859Z,13.83
2019-05-17T07:28:24.110Z,13.88
2019-05-17T07:33:30.478Z,13.76
2019-05-17T07:38:34.322Z,13.91
2019-05-17T07:43:40.515Z,14.03
2019-05-17T07:48:44.529Z,14.15
2019-05-17T07:53:49.494Z,14.27
2019-05-17T07:58:53.890Z,14.42
2019-05-17T08:04:00.401Z,14.64
2019-05-17T08:09:05.681Z,14.76
2019-05-17T08:14:10.553Z,14.81
2019-05-17T08:19:14.944Z,14.83
2019-05-17T08:24:19.670Z,14.92
2019-05-17T08:29:24.018Z,14.86
2019-05-17T08:34:29.288Z,14.81
2019-05-17T08:39:33.724Z,14.81
2019-05-17T08:44:39.398Z,14.92
2019-05-17T08:49:43.812Z,15.28
2019-05-17T08:54:49.563Z,15.51
2019-05-17T08:59:53.971Z,15.70
2019-05-17T09:05:00.279Z,15.58
2019-05-17T09:10:04.552Z,15.75
2019-05-17T09:15:09.997Z,15.83
2019-05-17T09:20:14.672Z,15.74
2019-05-17T09:25:21.783Z,16.30
2019-05-17T09:30:25.767Z,16.75
2019-05-17T09:35:30.206Z,16.66
2019-05-17T09:40:34.516Z,17.37
2019-05-17T09:45:40.452Z,17.77
2019-05-17T09:50:45.076Z,16.93
2019-05-17T09:55:49.787Z,16.95
2019-05-17T10:00:54.401Z,17.23
2019-05-17T10:06:00.006Z,17.57
2019-05-17T10:11:08.758Z,17.80
2019-05-17T10:16:10.570Z,17.56
2019-05-17T10:21:14.829Z,17.89
2019-05-17T10:26:19.835Z,18.32
2019-05-17T10:31:24.225Z,19.03
2019-05-17T10:36:29.363Z,18.66
2019-05-17T10:41:33.731Z,19.61
2019-05-17T10:46:40.478Z,20.13
2019-05-17T10:51:44.124Z,19.80
2019-05-17T10:56:50.220Z,19.80
2019-05-17T11:01:54.363Z,19.32
2019-05-17T11:06:59.584Z,19.07
2019-05-17T11:12:04.054Z,18.73
2019-05-17T11:17:08.248Z,18.64
2019-05-17T11:22:12.613Z,18.03
2019-05-17T11:27:16.845Z,18.24
2019-05-17T11:32:21.081Z,19.01
2019-05-17T11:37:25.320Z,18.98
2019-05-17T11:42:29.991Z,20.00
2019-05-17T11:47:34.253Z,20.00
2019-05-17T11:52:38.506Z,20.76
2019-05-17T11:57:42.758Z,22.15
2019-05-17T12:02:47.003Z,23.23
2019-05-17T12:07:51.270Z,23.22
2019-05-17T12:12:55.500Z,23.04
2019-05-17T12:17:59.730Z,22.34
2019-05-17T12:23:03.998Z,21.56
2019-05-17T12:28:09.145Z,21.63
2019-05-17T12:33:13.370Z,23.20
2019-05-17T12:38:17.630Z,23.65
2019-05-17T12:43:21.893Z,23.75
2019-05-17T12:48:26.135Z,23.44
2019-05-17T12:53:30.446Z,22.54
2019-05-17T12:58:34.780Z,21.75
2019-05-17T13:03:39.000Z,20.42
2019-05-17T13:08:43.253Z,20.03
2019-05-17T13:13:47.512Z,20.04
2019-05-17T13:18:51.772Z,20.18
2019-05-17T13:23:56.002Z,20.61
2019-05-17T13:29:00.247Z,21.32
2019-05-17T13:34:04.612Z,21.81
2019-05-17T13:39:08.982Z,22.04
2019-05-17T13:44:13.213Z,21.81
2019-05-17T13:49:17.451Z,21.38
2019-05-17T13:54:21.702Z,21.66
2019-05-17T13:59:25.921Z,22.51
2019-05-17T14:04:30.162Z,22.81
2019-05-17T14:09:34.435Z,23.10
2019-05-17T14:14:38.625Z,24.34
2019-05-17T14:19:42.871Z,25.73
2019-05-17T14:24:47.094Z,26.30
2019-05-17T14:29:51.339Z,26.57
2019-05-17T14:34:55.598Z,27.80
2019-05-17T14:39:59.835Z,27.89
2019-05-17T14:45:04.416Z,28.39
2019-05-17T14:50:09.669Z,25.84
2019-05-17T14:55:13.915Z,27.56
2019-05-17T15:00:18.395Z,28.27
2019-05-17T15:05:23.642Z,29.05
2019-05-17T15:10:27.917Z,28.55
2019-05-17T15:15:32.161Z,28.53
2019-05-17T15:20:36.424Z,28.25
2019-05-17T15:25:40.696Z,28.38
2019-05-17T15:30:45.036Z,28.87
2019-05-17T15:35:49.345Z,27.02
2019-05-17T15:40:53.592Z,25.40
2019-05-17T15:45:57.907Z,25.34
2019-05-17T15:51:02.177Z,27.60
2019-05-17T15:56:07.734Z,25.78
2019-05-17T16:01:12.003Z,24.84
2019-05-17T16:06:16.386Z,24.45
2019-05-17T16:11:20.669Z,23.30
2019-05-17T16:16:25.730Z,22.95
2019-05-17T16:21:29.955Z,23.23
2019-05-17T16:26:34.196Z,22.97
2019-05-17T16:31:38.447Z,22.39
2019-05-17T16:36:42.703Z,21.97
2019-05-17T16:41:46.955Z,21.67
2019-05-17T16:46:51.187Z,21.22
2019-05-17T16:51:55.500Z,20.94
2019-05-17T16:56:59.757Z,20.78
2019-05-17T17:02:04.100Z,20.58
2019-05-17T17:07:08.378Z,20.71
2019-05-17T17:12:12.659Z,20.73
2019-05-17T17:17:16.909Z,20.63
2019-05-17T17:22:21.275Z,20.67
2019-05-17T17:27:25.517Z,20.78
2019-05-17T17:32:29.773Z,20.74
2019-05-17T17:37:34.023Z,20.83
2019-05-17T17:42:38.516Z,20.76
2019-05-17T17:47:42.872Z,20.59
2019-05-17T17:52:50.300Z,20.45
2019-05-17T17:57:54.725Z,20.27
2019-05-17T18:02:58.930Z,20.04
2019-05-17T18:08:03.229Z,19.73
2019-05-17T18:13:07.553Z,19.75
2019-05-17T18:18:11.808Z,19.54
2019-05-17T18:23:20.879Z,19.46
2019-05-17T18:28:22.019Z,19.21
2019-05-17T18:33:26.469Z,19.05
2019-05-17T18:38:33.124Z,18.68
2019-05-17T18:43:37.463Z,18.66
2019-05-17T18:48:41.724Z,18.37
2019-05-17T18:53:45.985Z,18.37
2019-05-17T18:58:51.157Z,18.09
2019-05-17T19:03:55.406Z,17.84
2019-05-17T19:08:59.677Z,17.66
2019-05-17T19:14:03.947Z,17.55
2019-05-17T19:19:09.247Z,17.46
2019-05-17T19:24:13.521Z,17.29
2019-05-17T19:29:17.796Z,17.18
2019-05-17T19:34:22.051Z,17.10
2019-05-17T19:39:26.321Z,17.06
2019-05-17T19:44:30.573Z,17.06
2019-05-17T19:49:34.870Z,17.05
2019-05-17T19:54:39.121Z,17.02
2019-05-17T19:59:43.488Z,16.95
2019-05-17T20:04:47.749Z,16.89
2019-05-17T20:09:52.037Z,16.83
2019-05-17T20:14:56.318Z,16.81
2019-05-17T20:20:00.573Z,16.78
2019-05-17T20:25:06.011Z,16.73
2019-05-17T20:30:11.323Z,16.72
2019-05-17T20:35:18.082Z,16.66
2019-05-17T20:40:22.641Z,16.52
2019-05-17T20:45:33.029Z,16.45
2019-05-17T20:50:32.844Z,16.36
2019-05-17T20:55:37.173Z,16.26
2019-05-17T21:00:41.398Z,16.23
2019-05-17T21:05:45.700Z,16.22
2019-05-17T21:10:49.984Z,16.16
2019-05-17T21:15:54.228Z,16.12
2019-05-17T21:20:58.493Z,16.03
2019-05-17T21:26:02.740Z,16.02
2019-05-17T21:31:08.101Z,15.92
2019-05-17T21:36:12.551Z,15.93
2019-05-17T21:41:16.835Z,15.88
2019-05-17T21:46:21.095Z,15.80
2019-05-17T21:51:25.339Z,15.69
2019-05-17T21:56:29.603Z,15.63
2019-05-17T22:01:34.746Z,15.60
2019-05-17T22:06:39.011Z,15.51
2019-05-17T22:11:44.920Z,15.48
2019-05-17T22:16:49.176Z,15.42
2019-05-17T22:21:53.423Z,15.36
2019-05-17T22:26:57.669Z,15.27
2019-05-17T22:32:01.906Z,15.16
2019-05-17T22:37:06.168Z,15.12
2019-05-17T22:42:10.414Z,15.09
2019-05-17T22:47:14.699Z,15.03
2019-05-17T22:52:18.962Z,14.95
2019-05-17T22:57:23.254Z,14.90
2019-05-17T23:02:27.465Z,14.84
2019-05-17T23:07:31.711Z,14.81
2019-05-17T23:12:35.966Z,14.81
2019-05-17T23:17:40.220Z,14.73
2019-05-17T23:22:44.523Z,14.68
2019-05-17T23:27:48.762Z,14.60
2019-05-17T23:32:53.022Z,14.57
2019-05-17T23:37:57.270Z,14.49
2019-05-17T23:43:01.569Z,14.44
2019-05-17T23:48:05.813Z,14.42
2019-05-17T23:53:10.037Z,14.35
2019-05-17T23:58:14.277Z,14.28
